首页
METAR-TAF:

METAR-TAF

机场 :

Cherry Point, 北卡罗来纳州, 美国

纬度: 34-53-52N, 经度: 076-52-51W, 海拔: 8米

当前天气观测

该预报发布于18分钟前的16:54 UTC
风速5节,风向东转东南
温度 18°C
湿度 68%
气压 1022 hPa
能見度: 16.1公里
天空无云

METAR: KNKT 241654Z 11005KT 10SM CLR 18/12 A3017 RMK AO2 SLP211 T01780117

时间: 12:12 (17:12 UTC)

预报

预报有效从24日的 15点(UTC)到 25日的 15点(UTC)
风速5节,风向多变
能见度10公里或以上
散云层高于5500英尺
阴天层高于7500英尺
成为
从 25日的 02点(UTC)到 25日的 04点(UTC)
风速10节,风向
能見度: 8000
阴天层高于3000英尺
小阵雨, 轻雾

TAF: KNKT 2415/2515 VRB05KT 9999 SCT055 OVC075 QNH3020INS BECMG 2502/2504 18010KT 8000 -SHRA BR OVC030 QHN2993INS T18/2418Z T15/2501Z

超过4000个机场的气象观测和天气预报(METAR&TAF报告)。

可查询的气象台以黄色和红色小点在地图上表示。

将鼠标移到小点上方,可查看气象台名称。

然后点击查看天气观测和预报。

如需切换地图:点击带黑十字的绿色按钮放大地图;点击带横线的绿色按钮缩小地图;或者点击绿色箭头查看邻近地区的地图。


METAR-TAF: